sensor_id;sensor_type;location;lat;lon;timestamp;temperature;humidity
14154;DHT22;7157;53.144;7.570;2023-07-22T00:08:18;14.64;90.95
14154;DHT22;7157;53.144;7.570;2023-07-22T00:18:23;14.56;91.17
14154;DHT22;7157;53.144;7.570;2023-07-22T00:28:26;14.40;91.97
14154;DHT22;7157;53.144;7.570;2023-07-22T00:38:30;14.28;92.84
14154;DHT22;7157;53.144;7.570;2023-07-22T00:48:33;14.13;94.05
14154;DHT22;7157;53.144;7.570;2023-07-22T00:58:38;14.24;93.66
14154;DHT22;7157;53.144;7.570;2023-07-22T01:08:42;14.26;93.29
14154;DHT22;7157;53.144;7.570;2023-07-22T01:18:47;14.14;93.59
14154;DHT22;7157;53.144;7.570;2023-07-22T01:28:51;14.08;94.29
14154;DHT22;7157;53.144;7.570;2023-07-22T01:39:03;14.01;93.84
14154;DHT22;7157;53.144;7.570;2023-07-22T01:49:11;13.95;95.02
14154;DHT22;7157;53.144;7.570;2023-07-22T01:59:14;13.88;94.46
14154;DHT22;7157;53.144;7.570;2023-07-22T02:09:18;13.78;94.56
14154;DHT22;7157;53.144;7.570;2023-07-22T02:19:21;13.71;95.39
14154;DHT22;7157;53.144;7.570;2023-07-22T02:29:27;13.75;95.18
14154;DHT22;7157;53.144;7.570;2023-07-22T02:39:32;13.76;95.42
14154;DHT22;7157;53.144;7.570;2023-07-22T02:49:36;13.71;95.24
14154;DHT22;7157;53.144;7.570;2023-07-22T02:59:40;13.59;95.44
14154;DHT22;7157;53.144;7.570;2023-07-22T03:09:46;13.53;95.18
14154;DHT22;7157;53.144;7.570;2023-07-22T03:19:49;13.37;95.80
14154;DHT22;7157;53.144;7.570;2023-07-22T03:29:53;13.24;95.88
14154;DHT22;7157;53.144;7.570;2023-07-22T03:39:56;13.16;95.68
14154;DHT22;7157;53.144;7.570;2023-07-22T03:50:18;13.14;96.39
14154;DHT22;7157;53.144;7.570;2023-07-22T04:00:21;13.20;96.44
14154;DHT22;7157;53.144;7.570;2023-07-22T04:10:25;13.40;96.15
14154;DHT22;7157;53.144;7.570;2023-07-22T04:20:28;13.48;96.01
14154;DHT22;7157;53.144;7.570;2023-07-22T04:30:33;13.48;96.07
14154;DHT22;7157;53.144;7.570;2023-07-22T04:40:36;13.74;95.72
14154;DHT22;7157;53.144;7.570;2023-07-22T04:50:41;13.95;95.49
14154;DHT22;7157;53.144;7.570;2023-07-22T05:00:46;14.17;95.14
14154;DHT22;7157;53.144;7.570;2023-07-22T05:10:51;14.58;94.56
14154;DHT22;7157;53.144;7.570;2023-07-22T05:20:55;14.84;93.96
14154;DHT22;7157;53.144;7.570;2023-07-22T05:30:59;14.99;93.56
14154;DHT22;7157;53.144;7.570;2023-07-22T05:41:02;15.31;93.04
14154;DHT22;7157;53.144;7.570;2023-07-22T05:51:06;15.23;93.07
14154;DHT22;7157;53.144;7.570;2023-07-22T06:01:10;15.46;92.67
14154;DHT22;7157;53.144;7.570;2023-07-22T06:11:15;15.68;91.93
14154;DHT22;7157;53.144;7.570;2023-07-22T06:21:19;15.90;91.63
14154;DHT22;7157;53.144;7.570;2023-07-22T06:31:23;15.97;91.14
14154;DHT22;7157;53.144;7.570;2023-07-22T06:41:26;16.25;90.59
14154;DHT22;7157;53.144;7.570;2023-07-22T06:51:30;16.62;89.42
14154;DHT22;7157;53.144;7.570;2023-07-22T07:01:33;16.93;88.06
14154;DHT22;7157;53.144;7.570;2023-07-22T07:11:37;17.20;87.70
14154;DHT22;7157;53.144;7.570;2023-07-22T07:21:40;17.15;87.48
14154;DHT22;7157;53.144;7.570;2023-07-22T07:31:44;17.46;85.84
14154;DHT22;7157;53.144;7.570;2023-07-22T07:41:47;18.04;84.55
14154;DHT22;7157;53.144;7.570;2023-07-22T07:51:51;18.81;82.59
14154;DHT22;7157;53.144;7.570;2023-07-22T08:01:54;18.74;81.04
14154;DHT22;7157;53.144;7.570;2023-07-22T08:11:58;18.92;80.02
14154;DHT22;7157;53.144;7.570;2023-07-22T08:22:02;18.85;79.97
14154;DHT22;7157;53.144;7.570;2023-07-22T08:32:07;19.41;77.81
14154;DHT22;7157;53.144;7.570;2023-07-22T08:42:11;19.66;77.28
14154;DHT22;7157;53.144;7.570;2023-07-22T08:52:18;19.97;76.21
14154;DHT22;7157;53.144;7.570;2023-07-22T09:02:21;20.32;73.48
14154;DHT22;7157;53.144;7.570;2023-07-22T09:12:25;20.09;71.37
14154;DHT22;7157;53.144;7.570;2023-07-22T09:22:29;20.29;71.62
14154;DHT22;7157;53.144;7.570;2023-07-22T09:32:36;20.54;69.10
14154;DHT22;7157;53.144;7.570;2023-07-22T09:42:39;21.49;64.21
14154;DHT22;7157;53.144;7.570;2023-07-22T09:52:45;21.13;62.79
14154;DHT22;7157;53.144;7.570;2023-07-22T10:02:49;20.83;65.41
14154;DHT22;7157;53.144;7.570;2023-07-22T10:12:53;20.56;66.32
14154;DHT22;7157;53.144;7.570;2023-07-22T10:22:58;20.99;67.43
14154;DHT22;7157;53.144;7.570;2023-07-22T10:33:03;20.37;67.94
14154;DHT22;7157;53.144;7.570;2023-07-22T10:43:06;19.91;68.08
14154;DHT22;7157;53.144;7.570;2023-07-22T10:53:11;19.77;69.32
14154;DHT22;7157;53.144;7.570;2023-07-22T11:03:14;19.51;71.74
14154;DHT22;7157;53.144;7.570;2023-07-22T11:13:18;19.47;73.47
14154;DHT22;7157;53.144;7.570;2023-07-22T11:23:21;19.55;75.11
14154;DHT22;7157;53.144;7.570;2023-07-22T11:33:39;19.70;79.22
14154;DHT22;7157;53.144;7.570;2023-07-22T11:43:42;19.53;80.42
14154;DHT22;7157;53.144;7.570;2023-07-22T11:53:47;19.22;79.67
14154;DHT22;7157;53.144;7.570;2023-07-22T12:03:55;18.95;80.52
14154;DHT22;7157;53.144;7.570;2023-07-22T12:14:07;18.34;82.63
14154;DHT22;7157;53.144;7.570;2023-07-22T12:24:15;17.92;88.47
14154;DHT22;7157;53.144;7.570;2023-07-22T12:34:20;17.91;90.41
14154;DHT22;7157;53.144;7.570;2023-07-22T12:44:23;17.59;91.73
14154;DHT22;7157;53.144;7.570;2023-07-22T12:54:27;17.82;92.31
14154;DHT22;7157;53.144;7.570;2023-07-22T13:04:30;17.52;93.45
14154;DHT22;7157;53.144;7.570;2023-07-22T13:14:35;17.60;94.72
14154;DHT22;7157;53.144;7.570;2023-07-22T13:24:40;17.96;94.75
14154;DHT22;7157;53.144;7.570;2023-07-22T13:34:44;18.03;95.37
14154;DHT22;7157;53.144;7.570;2023-07-22T13:44:48;18.18;95.10
14154;DHT22;7157;53.144;7.570;2023-07-22T13:54:52;18.57;94.12
14154;DHT22;7157;53.144;7.570;2023-07-22T14:04:55;18.36;94.49
14154;DHT22;7157;53.144;7.570;2023-07-22T14:14:59;18.38;95.20
14154;DHT22;7157;53.144;7.570;2023-07-22T14:25:03;17.62;96.56
14154;DHT22;7157;53.144;7.570;2023-07-22T14:35:08;17.21;97.78
14154;DHT22;7157;53.144;7.570;2023-07-22T14:45:10;17.07;98.37
14154;DHT22;7157;53.144;7.570;2023-07-22T14:55:15;17.17;98.13
14154;DHT22;7157;53.144;7.570;2023-07-22T15:05:17;17.23;98.09
14154;DHT22;7157;53.144;7.570;2023-07-22T15:15:22;17.44;98.02
14154;DHT22;7157;53.144;7.570;2023-07-22T15:25:24;17.50;97.64
14154;DHT22;7157;53.144;7.570;2023-07-22T15:35:28;17.53;97.07
14154;DHT22;7157;53.144;7.570;2023-07-22T15:45:31;17.29;97.32
14154;DHT22;7157;53.144;7.570;2023-07-22T15:55:36;17.31;97.68
14154;DHT22;7157;53.144;7.570;2023-07-22T16:05:39;17.05;99.29
14154;DHT22;7157;53.144;7.570;2023-07-22T16:15:46;17.03;99.37
14154;DHT22;7157;53.144;7.570;2023-07-22T16:25:49;16.60;100.83
14154;DHT22;7157;53.144;7.570;2023-07-22T16:35:54;16.73;101.23
14154;DHT22;7157;53.144;7.570;2023-07-22T16:45:57;16.74;101.57
14154;DHT22;7157;53.144;7.570;2023-07-22T16:56:01;16.74;101.54
14154;DHT22;7157;53.144;7.570;2023-07-22T17:06:04;16.49;101.93
14154;DHT22;7157;53.144;7.570;2023-07-22T17:16:08;16.65;101.83
14154;DHT22;7157;53.144;7.570;2023-07-22T17:26:12;16.60;101.99
14154;DHT22;7157;53.144;7.570;2023-07-22T17:36:16;16.75;101.84
14154;DHT22;7157;53.144;7.570;2023-07-22T17:46:19;16.72;102.21
14154;DHT22;7157;53.144;7.570;2023-07-22T17:56:23;16.88;102.18
14154;DHT22;7157;53.144;7.570;2023-07-22T18:06:26;16.70;102.04
14154;DHT22;7157;53.144;7.570;2023-07-22T18:16:30;16.54;102.20
14154;DHT22;7157;53.144;7.570;2023-07-22T18:26:33;16.52;102.46
14154;DHT22;7157;53.144;7.570;2023-07-22T18:36:39;16.54;102.47
14154;DHT22;7157;53.144;7.570;2023-07-22T18:46:50;16.48;102.80
14154;DHT22;7157;53.144;7.570;2023-07-22T18:56:55;16.54;102.77
14154;DHT22;7157;53.144;7.570;2023-07-22T19:07:04;16.54;102.77
14154;DHT22;7157;53.144;7.570;2023-07-22T19:17:10;16.48;102.63
14154;DHT22;7157;53.144;7.570;2023-07-22T19:27:15;16.52;103.00
14154;DHT22;7157;53.144;7.570;2023-07-22T19:37:20;16.41;103.16
14154;DHT22;7157;53.144;7.570;2023-07-22T19:47:23;16.41;103.28
14154;DHT22;7157;53.144;7.570;2023-07-22T19:57:28;16.31;103.57
14154;DHT22;7157;53.144;7.570;2023-07-22T20:07:30;16.17;104.22
14154;DHT22;7157;53.144;7.570;2023-07-22T20:17:35;16.25;103.93
14154;DHT22;7157;53.144;7.570;2023-07-22T20:27:38;16.21;104.06
14154;DHT22;7157;53.144;7.570;2023-07-22T20:37:43;16.10;104.32
14154;DHT22;7157;53.144;7.570;2023-07-22T20:47:46;15.93;104.90
14154;DHT22;7157;53.144;7.570;2023-07-22T20:57:52;15.96;105.01
14154;DHT22;7157;53.144;7.570;2023-07-22T21:07:55;15.83;105.64
14154;DHT22;7157;53.144;7.570;2023-07-22T21:17:59;15.93;105.36
14154;DHT22;7157;53.144;7.570;2023-07-22T21:28:04;15.89;105.82
14154;DHT22;7157;53.144;7.570;2023-07-22T21:38:08;15.99;105.31
14154;DHT22;7157;53.144;7.570;2023-07-22T21:48:11;15.98;105.32
14154;DHT22;7157;53.144;7.570;2023-07-22T21:58:15;15.98;105.42
14154;DHT22;7157;53.144;7.570;2023-07-22T22:08:23;15.82;105.92
14154;DHT22;7157;53.144;7.570;2023-07-22T22:19:34;15.77;106.50
14154;DHT22;7157;53.144;7.570;2023-07-22T22:30:00;15.82;106.25
14154;DHT22;7157;53.144;7.570;2023-07-22T22:41:00;15.87;106.39
14154;DHT22;7157;53.144;7.570;2023-07-22T22:52:08;15.98;105.92
14154;DHT22;7157;53.144;7.570;2023-07-22T23:02:19;16.03;105.56
14154;DHT22;7157;53.144;7.570;2023-07-22T23:12:25;15.95;105.49
14154;DHT22;7157;53.144;7.570;2023-07-22T23:22:29;15.91;105.77
14154;DHT22;7157;53.144;7.570;2023-07-22T23:32:32;15.90;105.63
14154;DHT22;7157;53.144;7.570;2023-07-22T23:42:38;15.88;105.67
14154;DHT22;7157;53.144;7.570;2023-07-22T23:52:44;15.88;105.36
